createdAt,value
2019-04-26T00:01:18.837Z,11.00
2019-04-26T00:04:03.419Z,11.10
2019-04-26T00:06:48.501Z,11.00
2019-04-26T00:09:37.984Z,11.00
2019-04-26T00:12:30.903Z,11.00
2019-04-26T00:15:35.033Z,11.10
2019-04-26T00:18:20.907Z,11.10
2019-04-26T00:21:05.828Z,11.00
2019-04-26T00:23:50.823Z,11.00
2019-04-26T00:26:35.961Z,11.10
2019-04-26T00:29:21.213Z,11.00
2019-04-26T00:32:05.990Z,11.00
2019-04-26T00:34:50.499Z,11.00
2019-04-26T00:37:35.265Z,11.00
2019-04-26T00:40:20.312Z,11.00
2019-04-26T00:43:05.027Z,10.90
2019-04-26T00:45:49.412Z,10.90
2019-04-26T00:48:34.324Z,10.90
2019-04-26T00:51:19.378Z,10.90
2019-04-26T00:54:04.296Z,10.90
2019-04-26T00:56:48.804Z,10.90
2019-04-26T00:59:33.663Z,10.80
2019-04-26T01:02:26.463Z,10.80
2019-04-26T01:05:11.096Z,10.70
2019-04-26T01:07:56.717Z,10.60
2019-04-26T01:10:41.281Z,10.60
2019-04-26T01:13:26.172Z,10.50
2019-04-26T01:16:11.284Z,10.50
2019-04-26T01:18:55.785Z,10.50
2019-04-26T01:21:40.632Z,10.50
2019-04-26T01:24:25.488Z,10.50
2019-04-26T01:27:10.020Z,10.60
2019-04-26T01:29:54.464Z,10.60
2019-04-26T01:32:39.227Z,10.70
2019-04-26T01:35:24.211Z,10.70
2019-04-26T01:38:09.129Z,10.60
2019-04-26T01:40:55.845Z,10.60
2019-04-26T01:43:42.125Z,10.50
2019-04-26T01:46:29.006Z,10.50
2019-04-26T01:49:14.060Z,10.50
2019-04-26T01:51:58.695Z,10.40
2019-04-26T01:54:43.668Z,10.40
2019-04-26T01:57:29.325Z,10.50
2019-04-26T02:00:16.228Z,10.50
2019-04-26T02:03:02.554Z,10.50
2019-04-26T02:05:46.942Z,10.50
2019-04-26T02:08:32.487Z,10.60
2019-04-26T02:11:17.051Z,10.60
2019-04-26T02:14:01.860Z,10.70
2019-04-26T02:16:46.212Z,10.60
2019-04-26T02:19:31.588Z,10.50
2019-04-26T02:22:24.483Z,10.50
2019-04-26T02:25:09.141Z,10.50
2019-04-26T02:27:53.912Z,10.40
2019-04-26T02:30:38.523Z,10.30
2019-04-26T02:33:23.193Z,10.30
2019-04-26T02:36:08.121Z,10.40
2019-04-26T02:38:52.832Z,10.40
2019-04-26T02:41:37.645Z,10.40
2019-04-26T02:44:22.373Z,10.40
2019-04-26T02:47:26.698Z,10.30
2019-04-26T02:50:31.144Z,10.30
2019-04-26T02:53:15.843Z,10.20
2019-04-26T02:56:00.218Z,10.20
2019-04-26T02:58:45.209Z,10.20
2019-04-26T03:01:31.817Z,10.30
2019-04-26T03:04:16.251Z,10.30
2019-04-26T03:07:03.382Z,10.40
2019-04-26T03:09:47.229Z,10.40
2019-04-26T03:12:32.606Z,10.30
2019-04-26T03:15:20.175Z,10.30
2019-04-26T03:18:23.830Z,10.30
2019-04-26T03:21:08.645Z,10.30
2019-04-26T03:23:59.075Z,10.30
2019-04-26T03:26:41.581Z,10.30
2019-04-26T03:29:26.357Z,10.40
2019-04-26T03:32:16.155Z,10.40
2019-04-26T03:34:59.613Z,10.40
2019-04-26T03:37:46.372Z,10.40
2019-04-26T03:40:43.196Z,10.30
2019-04-26T03:43:28.648Z,10.30
2019-04-26T03:46:13.332Z,10.30
2019-04-26T03:48:58.092Z,10.20
2019-04-26T03:51:43.454Z,10.20
2019-04-26T03:54:29.606Z,10.20
2019-04-26T03:57:16.041Z,10.20
2019-04-26T04:00:20.634Z,10.20
2019-04-26T04:03:19.357Z,10.10
2019-04-26T04:06:04.340Z,10.00
2019-04-26T04:08:48.962Z,10.00
2019-04-26T04:11:33.817Z,10.00
2019-04-26T04:14:19.065Z,10.00
2019-04-26T04:17:12.093Z,10.00
2019-04-26T04:20:11.039Z,10.00
2019-04-26T04:22:55.844Z,10.10
2019-04-26T04:25:42.186Z,10.00
2019-04-26T04:28:27.117Z,10.00
2019-04-26T04:31:12.090Z,10.00
2019-04-26T04:33:56.392Z,10.00
2019-04-26T04:36:42.147Z,10.00
2019-04-26T04:39:27.681Z,10.10
2019-04-26T04:42:14.121Z,10.10
2019-04-26T04:45:13.035Z,10.10
2019-04-26T04:48:16.451Z,10.10
2019-04-26T04:51:01.307Z,10.10
2019-04-26T04:53:46.498Z,10.20
2019-04-26T04:56:32.353Z,10.20
2019-04-26T04:59:17.017Z,10.20
2019-04-26T05:02:03.544Z,10.20
2019-04-26T05:05:05.441Z,10.30
2019-04-26T05:07:49.744Z,10.40
2019-04-26T05:10:34.507Z,10.30
2019-04-26T05:13:19.283Z,10.30
2019-04-26T05:16:08.821Z,10.40
2019-04-26T05:18:53.536Z,10.40
2019-04-26T05:21:38.270Z,10.40
2019-04-26T05:24:23.032Z,10.40
2019-04-26T05:27:19.043Z,10.50
2019-04-26T05:30:14.664Z,10.50
2019-04-26T05:32:59.385Z,10.40
2019-04-26T05:35:46.260Z,10.50
2019-04-26T05:38:31.812Z,10.50
2019-04-26T05:41:17.572Z,10.40
2019-04-26T05:44:13.249Z,10.40
2019-04-26T05:47:01.008Z,10.40
2019-04-26T05:49:47.449Z,10.40
2019-04-26T05:52:33.833Z,10.40
2019-04-26T05:55:26.681Z,10.40
2019-04-26T05:58:11.556Z,10.40
2019-04-26T06:01:04.387Z,10.40
2019-04-26T06:03:50.877Z,10.40
2019-04-26T06:06:37.534Z,10.40
2019-04-26T06:09:27.393Z,10.40
2019-04-26T06:15:12.386Z,10.40
2019-04-26T06:18:05.396Z,10.50
2019-04-26T06:20:51.183Z,10.40
2019-04-26T06:23:36.441Z,10.40
2019-04-26T06:26:29.192Z,10.40
2019-04-26T06:29:13.641Z,10.40
2019-04-26T06:31:58.397Z,10.40
2019-04-26T06:34:43.169Z,10.40
2019-04-26T06:37:29.682Z,10.30
2019-04-26T06:40:14.362Z,10.40
2019-04-26T06:43:00.540Z,10.50
2019-04-26T06:45:47.008Z,10.50
2019-04-26T06:48:39.744Z,10.60
2019-04-26T06:51:25.219Z,10.60
2019-04-26T06:54:11.587Z,10.70
2019-04-26T06:57:07.906Z,10.70
2019-04-26T06:59:44.629Z,10.70
2019-04-26T07:02:29.369Z,10.70
2019-04-26T07:05:15.338Z,10.70
2019-04-26T07:07:54.885Z,10.70
2019-04-26T07:10:39.388Z,10.60
2019-04-26T07:13:38.361Z,10.80
2019-04-26T07:16:23.473Z,10.90
2019-04-26T07:19:08.248Z,10.90
2019-04-26T07:22:11.387Z,10.90
2019-04-26T07:25:00.001Z,10.90
2019-04-26T07:27:44.577Z,11.00
2019-04-26T07:30:29.027Z,11.00
2019-04-26T07:33:13.992Z,10.90
2019-04-26T07:35:59.053Z,10.80
2019-04-26T07:38:50.589Z,10.90
2019-04-26T07:41:37.163Z,10.90
2019-04-26T07:47:15.356Z,11.00
2019-04-26T07:50:00.315Z,11.00
2019-04-26T07:52:45.047Z,11.00
2019-04-26T07:55:29.616Z,10.90
2019-04-26T07:58:14.548Z,10.80
2019-04-26T08:01:02.747Z,10.90
2019-04-26T08:03:50.541Z,10.90
2019-04-26T08:06:35.334Z,11.10
2019-04-26T08:09:27.020Z,11.10
2019-04-26T08:12:07.833Z,11.20
2019-04-26T08:14:54.360Z,11.20
2019-04-26T08:17:46.893Z,11.30
2019-04-26T08:20:33.472Z,11.30
2019-04-26T08:23:38.027Z,11.30
2019-04-26T08:26:05.120Z,11.30
2019-04-26T08:28:50.960Z,11.30
2019-04-26T08:31:35.768Z,11.40
2019-04-26T08:34:28.862Z,11.60
2019-04-26T08:37:19.975Z,11.80
2019-04-26T08:40:05.157Z,12.00
2019-04-26T08:42:53.376Z,12.30
2019-04-26T08:46:01.714Z,12.40
2019-04-26T08:48:44.080Z,12.40
2019-04-26T08:51:28.543Z,12.40
2019-04-26T08:54:21.559Z,12.20
2019-04-26T08:57:06.808Z,12.20
2019-04-26T08:59:51.201Z,12.10
2019-04-26T09:02:49.826Z,12.10
2019-04-26T09:05:36.124Z,12.00
2019-04-26T09:08:21.296Z,11.80
2019-04-26T09:11:05.604Z,11.70
2019-04-26T09:13:50.260Z,11.80
2019-04-26T09:16:35.103Z,12.00
2019-04-26T09:19:19.941Z,12.10
2019-04-26T09:24:48.275Z,12.60
2019-04-26T09:27:44.006Z,13.00
2019-04-26T09:30:47.687Z,13.30
2019-04-26T09:33:43.544Z,13.70
2019-04-26T09:36:28.176Z,14.10
2019-04-26T09:39:13.723Z,14.50
2019-04-26T09:42:06.042Z,14.60
2019-04-26T09:45:07.061Z,15.00
2019-04-26T09:47:53.867Z,15.30
2019-04-26T09:50:40.357Z,15.40
2019-04-26T09:53:25.121Z,15.40
2019-04-26T09:56:09.616Z,15.20
2019-04-26T09:58:54.376Z,15.20
2019-04-26T10:01:39.244Z,15.10
2019-04-26T10:04:24.028Z,15.10
2019-04-26T10:07:08.838Z,15.00
2019-04-26T10:09:56.451Z,14.80
2019-04-26T10:12:50.849Z,14.60
2019-04-26T10:15:58.253Z,14.30
2019-04-26T10:18:42.513Z,14.10
2019-04-26T10:21:27.368Z,13.90
2019-04-26T10:24:12.109Z,14.00
2019-04-26T10:26:59.219Z,14.10
2019-04-26T10:29:43.359Z,14.20
2019-04-26T10:32:28.188Z,14.30
2019-04-26T10:35:12.971Z,14.30
2019-04-26T10:37:57.451Z,14.40
2019-04-26T10:40:42.267Z,14.50
2019-04-26T10:43:29.336Z,14.30
2019-04-26T10:46:13.562Z,13.80
2019-04-26T10:49:08.188Z,13.40
2019-04-26T10:51:45.070Z,13.00
2019-04-26T10:54:29.679Z,12.90
2019-04-26T10:57:16.196Z,12.90
2019-04-26T11:00:09.279Z,13.00
2019-04-26T11:02:53.844Z,13.30
2019-04-26T11:05:38.555Z,13.60
2019-04-26T11:08:23.337Z,14.00
2019-04-26T11:11:08.851Z,14.30
2019-04-26T11:13:53.442Z,14.40
2019-04-26T11:16:41.301Z,14.60
2019-04-26T11:19:24.847Z,14.60
2019-04-26T11:22:09.790Z,14.40
2019-04-26T11:24:55.089Z,14.20
2019-04-26T11:27:27.987Z,14.00
2019-04-26T11:30:20.383Z,13.70
2019-04-26T11:32:59.294Z,13.90
2019-04-26T11:35:43.832Z,13.90
2019-04-26T11:38:31.172Z,14.00
2019-04-26T11:41:15.001Z,14.10
2019-04-26T11:43:59.834Z,14.20
2019-04-26T11:46:45.376Z,14.30
2019-04-26T11:49:30.660Z,14.40
2019-04-26T11:52:15.330Z,14.20
2019-04-26T11:55:00.016Z,14.10
2019-04-26T11:57:47.553Z,14.10
2019-04-26T12:00:42.209Z,13.90
2019-04-26T12:03:26.731Z,13.90
2019-04-26T12:06:30.369Z,14.30
2019-04-26T12:09:23.369Z,14.80
2019-04-26T12:12:09.267Z,15.40
2019-04-26T12:14:54.869Z,15.90
2019-04-26T12:17:39.396Z,16.40
2019-04-26T12:20:26.825Z,16.90
2019-04-26T12:23:13.605Z,17.20
2019-04-26T12:25:57.513Z,17.30
2019-04-26T12:28:42.261Z,17.50
2019-04-26T12:31:26.928Z,17.80
2019-04-26T12:34:14.134Z,17.90
2019-04-26T12:36:58.827Z,17.90
2019-04-26T12:39:43.713Z,17.70
2019-04-26T12:42:28.428Z,17.80
2019-04-26T12:45:16.697Z,17.80
2019-04-26T12:48:12.455Z,17.60
2019-04-26T12:53:50.082Z,17.50
2019-04-26T12:56:31.262Z,17.50
2019-04-26T12:59:15.864Z,17.40
2019-04-26T13:02:05.959Z,17.40
2019-04-26T13:04:46.428Z,17.50
2019-04-26T13:07:31.073Z,17.50
2019-04-26T13:10:20.485Z,17.60
2019-04-26T13:13:10.435Z,17.70
2019-04-26T13:15:56.876Z,17.80
2019-04-26T13:18:45.133Z,17.80
2019-04-26T13:21:27.937Z,17.80
2019-04-26T13:24:12.760Z,18.10
2019-04-26T13:26:57.050Z,18.20
2019-04-26T13:29:41.702Z,18.10
2019-04-26T13:32:26.416Z,18.10
2019-04-26T13:35:12.864Z,18.10
2019-04-26T13:37:57.299Z,18.00
2019-04-26T13:40:42.211Z,17.80
2019-04-26T13:43:28.453Z,17.80
2019-04-26T13:46:21.457Z,18.00
2019-04-26T13:49:08.064Z,18.40
2019-04-26T13:51:52.693Z,18.60
2019-04-26T13:54:37.393Z,18.70
2019-04-26T13:57:22.216Z,18.60
2019-04-26T18:05:56.536Z,15.50
2019-04-26T18:08:40.952Z,15.40
2019-04-26T18:11:24.772Z,15.40
2019-04-26T18:14:20.549Z,15.20
2019-04-26T18:16:57.236Z,15.00
2019-04-26T18:20:00.609Z,14.90
2019-04-26T18:22:57.681Z,14.70
2019-04-26T18:25:45.143Z,14.60
2019-04-26T18:28:28.776Z,14.50
2019-04-26T18:31:17.735Z,14.40
2019-04-26T18:34:04.018Z,14.30
2019-04-26T18:36:48.507Z,14.20
2019-04-26T18:39:33.212Z,14.10
2019-04-26T18:42:18.294Z,14.00
2019-04-26T18:45:03.661Z,13.90
2019-04-26T18:47:48.303Z,13.80
2019-04-26T18:50:36.360Z,13.70
2019-04-26T18:53:36.629Z,13.50
2019-04-26T18:56:17.724Z,13.40
2019-04-26T18:59:03.141Z,13.30
2019-04-26T19:01:48.067Z,13.10
2019-04-26T19:04:33.610Z,13.10
2019-04-26T19:07:30.968Z,13.00
2019-04-26T19:10:06.687Z,12.90
2019-04-26T19:12:52.271Z,12.80
2019-04-26T19:15:41.686Z,12.70
2019-04-26T19:18:27.816Z,12.70
2019-04-26T19:21:32.269Z,12.60
2019-04-26T19:24:19.475Z,12.50
2019-04-26T19:27:04.241Z,12.40
2019-04-26T19:29:48.722Z,12.40
2019-04-26T19:32:35.437Z,12.30
2019-04-26T19:35:21.794Z,12.20
2019-04-26T19:38:07.476Z,12.20
2019-04-26T19:40:52.921Z,12.20
2019-04-26T19:43:39.163Z,12.10
2019-04-26T19:46:38.392Z,12.00
2019-04-26T19:49:41.864Z,12.00
2019-04-26T19:52:39.638Z,11.90
2019-04-26T19:55:32.511Z,11.80
2019-04-26T19:58:31.974Z,11.80
2019-04-26T20:01:20.654Z,11.70
2019-04-26T20:04:03.005Z,11.60
2019-04-26T20:06:48.498Z,11.60
2019-04-26T20:09:34.005Z,11.50
2019-04-26T20:12:18.936Z,11.40
2019-04-26T20:15:05.134Z,11.40
2019-04-26T20:17:52.420Z,11.30
2019-04-26T20:20:36.423Z,11.20
2019-04-26T20:23:22.835Z,11.10
2019-04-26T20:26:09.036Z,11.00
2019-04-26T20:28:53.573Z,11.00
2019-04-26T20:31:47.526Z,11.00
2019-04-26T20:34:29.624Z,10.90
2019-04-26T20:37:16.213Z,10.90
2019-04-26T20:40:16.283Z,10.80
2019-04-26T20:42:47.669Z,10.70
2019-04-26T20:45:39.680Z,10.70
2019-04-26T20:48:19.112Z,10.80
2019-04-26T20:50:59.563Z,10.90
2019-04-26T20:53:44.147Z,11.00
2019-04-26T20:56:28.870Z,11.20
2019-04-26T20:59:16.686Z,11.30
2019-04-26T21:02:07.360Z,11.50
2019-04-26T21:04:46.775Z,11.60
2019-04-26T21:07:32.557Z,11.60
2019-04-26T21:13:05.504Z,11.50
2019-04-26T21:15:57.944Z,11.50
2019-04-26T21:18:40.206Z,11.40
2019-04-26T21:21:23.306Z,11.40
2019-04-26T21:24:08.033Z,11.40
2019-04-26T21:26:54.656Z,11.40
2019-04-26T21:29:43.522Z,11.40
2019-04-26T21:32:45.451Z,11.40
2019-04-26T21:35:48.640Z,11.40
2019-04-26T21:38:38.334Z,11.50
2019-04-26T21:41:24.979Z,11.40
2019-04-26T21:44:13.250Z,11.40
2019-04-26T21:46:58.882Z,11.30
2019-04-26T21:49:43.028Z,11.30
2019-04-26T21:52:29.242Z,11.10
2019-04-26T21:55:14.173Z,11.10
2019-04-26T21:57:58.783Z,10.90
2019-04-26T22:00:45.242Z,10.90
2019-04-26T22:03:30.051Z,10.80
2019-04-26T22:06:14.846Z,10.70
2019-04-26T22:09:07.788Z,10.60
2019-04-26T22:11:53.946Z,10.60
2019-04-26T22:14:40.832Z,10.60
2019-04-26T22:17:36.314Z,10.60
2019-04-26T22:20:23.397Z,10.60
2019-04-26T22:23:16.348Z,10.60
2019-04-26T22:26:05.030Z,10.60
2019-04-26T22:28:49.556Z,10.80
2019-04-26T22:31:37.899Z,10.90
2019-04-26T22:34:20.940Z,11.00
2019-04-26T22:37:11.535Z,11.10
2019-04-26T22:39:51.812Z,11.20
2019-04-26T22:42:41.613Z,11.30
2019-04-26T22:45:33.536Z,11.30
2019-04-26T22:48:26.545Z,11.40
2019-04-26T22:51:11.416Z,11.30
2019-04-26T22:53:57.528Z,11.20
2019-04-26T22:56:43.833Z,11.20
2019-04-26T22:59:29.298Z,11.30
2019-04-26T23:02:18.599Z,11.30
2019-04-26T23:05:02.136Z,11.30
2019-04-26T23:07:48.268Z,11.20
2019-04-26T23:10:40.813Z,11.20
2019-04-26T23:13:33.879Z,11.20
2019-04-26T23:16:20.269Z,11.30
2019-04-26T23:19:20.372Z,11.30
2019-04-26T23:22:05.043Z,11.30
2019-04-26T23:24:54.474Z,11.20
2019-04-26T23:27:36.187Z,11.20
2019-04-26T23:30:23.118Z,11.20
2019-04-26T23:33:07.959Z,11.10
2019-04-26T23:35:53.030Z,11.10
2019-04-26T23:38:37.794Z,11.10
2019-04-26T23:41:23.572Z,11.00
2019-04-26T23:44:09.455Z,11.00
2019-04-26T23:47:00.828Z,11.00
2019-04-26T23:49:41.019Z,11.00
2019-04-26T23:52:25.664Z,10.90
2019-04-26T23:55:10.316Z,10.80
2019-04-26T23:57:54.721Z,10.70
